Terminal Aerodrome Forecast
Issued by NWS

Home | Current Version | Previous Version | Text Only | Print | Product List | Glossary On
Versions: 1 2 3 4 5 6 7 8 9 10 11 12
000
FTUS41 KBTV 250527
TAFSLK
TAF
KSLK 250527Z 2506/2606 VRB03KT P6SM OVC250
     FM251200 22006KT P6SM OVC070
     FM251500 22007KT P6SM -SHRA OVC050
     FM260000 22007KT 6SM -SHRA OVC050=

USA.gov is the U.S. government's official web portal to all federal, state and local government web resources and services.